Time;durP1;ratioP1;P1;durP2;ratioP2;P2;SDS_P1;SDS_P2;PMS_P1;PMS_P2;Temp;Humidity;BMP_temperature;BMP_pressure;BME280_temperature;BME280_humidity;BME280_pressure;Samples;Min_cycle;Max_cycle;Signal;HPM_P1;HPM_P2
2023/08/22 00:00:44;;;;;;;3.38;2.08;;;;;;;21.01;71.15;102005.13;6100912;29;20665;-68
2023/08/22 00:04:05;;;;;;;12.40;2.65;;;;;;;20.93;70.98;102010.63;6087481;29;20224;-67
2023/08/22 00:07:27;;;;;;;6.05;2.60;;;;;;;20.26;71.64;102009.19;6099051;29;20243;-68
2023/08/22 00:10:48;;;;;;;3.90;2.00;;;;;;;20.48;72.07;101992.94;6075349;29;20236;-67
2023/08/22 00:14:09;;;;;;;3.75;2.03;;;;;;;20.88;71.51;101993.88;6098153;29;20708;-66
2023/08/22 00:17:30;;;;;;;2.55;2.30;;;;;;;20.96;71.66;101988.34;6103225;29;20830;-66
2023/08/22 00:20:51;;;;;;;2.92;1.90;;;;;;;20.92;70.71;101985.13;6082756;29;20255;-67
2023/08/22 00:24:14;;;;;;;5.63;2.65;;;;;;;20.96;70.98;101986.47;6097781;29;20236;-67
2023/08/22 00:27:35;;;;;;;3.83;2.80;;;;;;;20.85;71.83;101988.72;6098774;29;20657;-67
2023/08/22 00:30:56;;;;;;;3.42;2.35;;;;;;;20.88;71.64;101985.63;6097617;29;20231;-67
2023/08/22 00:34:17;;;;;;;3.38;2.75;;;;;;;21.00;71.27;101984.22;6087466;29;20232;-66
2023/08/22 00:37:38;;;;;;;1.88;1.70;;;;;;;21.08;71.22;101992.44;6104213;29;20236;-67
2023/08/22 00:41:03;;;;;;;2.75;2.55;;;;;;;21.08;71.37;101976.00;6106299;29;20224;-67
2023/08/22 00:44:24;;;;;;;3.78;2.42;;;;;;;20.85;72.11;101970.38;6087558;29;20240;-66
2023/08/22 00:47:44;;;;;;;4.15;2.00;;;;;;;20.94;71.67;101968.47;6094202;29;20248;-67
2023/08/22 00:51:06;;;;;;;1.95;1.63;;;;;;;20.55;72.64;101969.25;6084275;29;20236;-66
2023/08/22 00:54:27;;;;;;;4.85;2.33;;;;;;;20.79;72.57;101954.66;6089208;29;20231;-67
2023/08/22 00:57:50;;;;;;;2.22;2.08;;;;;;;20.89;72.36;101952.56;6090025;29;20231;-68
2023/08/22 01:01:11;;;;;;;3.88;3.00;;;;;;;20.92;72.11;101948.63;6068853;29;20315;-67
2023/08/22 01:04:32;;;;;;;2.67;2.33;;;;;;;20.89;72.08;101944.31;6075136;29;20228;-67
2023/08/22 01:08:00;;;;;;;3.03;2.72;;;;;;;20.53;71.77;101945.78;6090088;29;20240;-67
2023/08/22 01:11:30;;;;;;;3.28;1.92;;;;;;;20.53;72.18;101959.50;6093142;29;20264;-67
2023/08/22 01:14:59;;;;;;;2.97;2.30;;;;;;;20.59;72.11;101945.09;6105530;29;20255;-67
2023/08/22 01:18:22;;;;;;;2.30;2.08;;;;;;;20.56;72.68;101948.19;6089000;29;20515;-67
2023/08/22 01:21:49;;;;;;;3.67;2.38;;;;;;;20.39;72.81;101950.13;6086579;29;20223;-67
2023/08/22 01:25:10;;;;;;;2.17;1.95;;;;;;;20.20;73.38;101961.44;6096240;29;20232;-67
2023/08/22 01:28:40;;;;;;;6.57;2.45;;;;;;;20.44;73.15;101964.13;6108720;29;20235;-67
2023/08/22 01:32:10;;;;;;;4.47;2.17;;;;;;;20.49;72.76;101960.88;6111276;29;20315;-66
2023/08/22 01:35:33;;;;;;;2.70;2.13;;;;;;;20.18;72.79;101962.59;6108330;29;20879;-67
2023/08/22 01:38:59;;;;;;;3.28;2.28;;;;;;;20.13;73.69;101968.56;6110029;29;20239;-67
2023/08/22 01:42:20;;;;;;;2.25;1.90;;;;;;;19.80;74.17;101942.22;6066047;29;20267;-66
2023/08/22 01:45:42;;;;;;;2.67;2.08;;;;;;;20.18;74.32;101936.06;6083264;29;20235;-67
2023/08/22 01:49:04;;;;;;;3.55;2.17;;;;;;;20.31;73.59;101941.06;6090301;29;20240;-67
2023/08/22 01:52:25;;;;;;;3.15;2.22;;;;;;;20.37;73.70;101943.97;6103381;29;20332;-68
2023/08/22 01:55:48;;;;;;;2.50;1.90;;;;;;;20.25;73.05;101945.34;6089578;29;21913;-66
2023/08/22 01:59:08;;;;;;;3.10;2.30;;;;;;;20.18;73.81;101930.59;6099176;29;20624;-67
2023/08/22 02:02:29;;;;;;;2.55;1.98;;;;;;;20.24;73.99;101931.81;6090193;29;20304;-68
2023/08/22 02:05:51;;;;;;;2.65;2.20;;;;;;;20.25;73.72;101915.22;6097585;29;20228;-68
2023/08/22 02:09:13;;;;;;;4.28;2.35;;;;;;;20.30;72.94;101901.84;6101054;29;20240;-67
2023/08/22 02:12:36;;;;;;;3.35;2.22;;;;;;;20.31;73.17;101875.31;6079025;29;20236;-67
2023/08/22 02:15:58;;;;;;;5.55;2.08;;;;;;;20.27;73.13;101854.78;6091931;29;20248;-68
2023/08/22 02:19:19;;;;;;;3.33;1.88;;;;;;;19.93;73.14;101855.84;6076450;29;20614;-67
2023/08/22 02:22:40;;;;;;;4.72;2.00;;;;;;;19.80;74.11;101866.47;6101640;29;20240;-67
2023/08/22 02:26:01;;;;;;;5.22;2.55;;;;;;;19.23;74.77;101880.22;6096998;29;20236;-66
2023/08/22 02:29:23;;;;;;;2.75;2.17;;;;;;;19.02;76.00;101869.75;6085792;29;20244;-67
2023/08/22 02:32:44;;;;;;;2.63;2.15;;;;;;;19.14;76.62;101888.41;6097546;29;20495;-67
2023/08/22 02:36:05;;;;;;;4.00;2.38;;;;;;;19.44;75.90;101881.47;6091077;28;20239;-68
2023/08/22 02:39:26;;;;;;;4.95;2.15;;;;;;;19.39;75.60;101878.41;6091927;29;20804;-68
2023/08/22 02:42:48;;;;;;;2.30;2.03;;;;;;;19.13;76.27;101855.75;6100547;29;20236;-67
2023/08/22 02:46:10;;;;;;;2.28;1.67;;;;;;;19.18;75.93;101867.06;6070082;29;20244;-67
2023/08/22 02:49:30;;;;;;;3.40;2.15;;;;;;;19.32;75.68;101887.41;6076420;29;20351;-67
2023/08/22 02:52:52;;;;;;;3.60;2.13;;;;;;;19.52;75.94;101905.28;6085942;29;20235;-67
2023/08/22 02:56:13;;;;;;;2.97;2.55;;;;;;;19.70;75.06;101905.97;6100483;29;20241;-66
2023/08/22 02:59:34;;;;;;;2.53;1.90;;;;;;;19.58;73.99;101915.53;6053562;29;20237;-67
2023/08/22 03:02:57;;;;;;;3.63;1.95;;;;;;;19.46;73.93;101920.47;6086940;29;20508;-66
2023/08/22 03:06:19;;;;;;;2.28;2.08;;;;;;;19.17;75.28;101902.78;6084775;29;20505;-67
2023/08/22 03:09:40;;;;;;;3.08;2.40;;;;;;;19.69;74.46;101893.31;6103593;29;20314;-66
2023/08/22 03:13:03;;;;;;;3.03;2.72;;;;;;;19.99;73.51;101881.66;6099434;28;20231;-67
2023/08/22 03:16:25;;;;;;;3.88;3.03;;;;;;;20.14;73.14;101898.25;6083816;29;20236;-67
2023/08/22 03:19:48;;;;;;;2.38;1.77;;;;;;;19.89;73.19;101894.69;6086400;29;20232;-67
2023/08/22 03:23:09;;;;;;;6.47;3.15;;;;;;;20.00;73.24;101894.34;6094627;29;20240;-67
2023/08/22 03:26:31;;;;;;;3.88;2.30;;;;;;;20.16;73.49;101872.41;6089072;29;20237;-67
2023/08/22 03:29:52;;;;;;;1.83;1.55;;;;;;;20.20;73.10;101884.75;6070967;29;20240;-67
2023/08/22 03:33:13;;;;;;;2.05;1.58;;;;;;;19.99;72.67;101876.19;6096331;29;20235;-67
2023/08/22 03:36:35;;;;;;;3.97;2.75;;;;;;;19.78;72.83;101876.72;6081000;29;20232;-66
2023/08/22 03:40:01;;;;;;;2.95;1.90;;;;;;;19.66;73.31;101883.56;6089908;29;20236;-66
2023/08/22 03:43:22;;;;;;;1.98;1.58;;;;;;;20.03;73.67;101885.75;6090799;29;20291;-66
2023/08/22 03:46:43;;;;;;;3.80;2.38;;;;;;;20.07;72.44;101883.56;6091785;29;20232;-66
2023/08/22 03:50:15;;;;;;;5.95;2.67;;;;;;;20.08;72.66;101875.16;6095259;29;23454;-66
2023/08/22 03:53:37;;;;;;;2.88;2.17;;;;;;;20.03;72.60;101861.13;6092408;29;20260;-66
2023/08/22 03:56:58;;;;;;;4.28;2.13;;;;;;;19.97;72.56;101872.78;6075400;29;20314;-66
2023/08/22 04:00:20;;;;;;;2.55;2.35;;;;;;;19.81;72.90;101879.13;6088866;29;20244;-66
2023/08/22 04:03:41;;;;;;;3.97;2.20;;;;;;;19.53;73.60;101874.13;6099796;29;20247;-65
2023/08/22 04:07:02;;;;;;;2.58;2.05;;;;;;;19.62;74.17;101874.00;6054018;29;20248;-65
2023/08/22 04:10:24;;;;;;;3.83;2.00;;;;;;;19.24;74.76;101873.72;6087122;29;20244;-65
2023/08/22 04:13:45;;;;;;;2.20;1.85;;;;;;;19.22;75.25;101876.63;6110064;29;20250;-66
2023/08/22 04:17:06;;;;;;;4.25;2.03;;;;;;;19.39;75.22;101869.34;6100137;29;20600;-67
2023/08/22 04:20:27;;;;;;;7.85;2.88;;;;;;;19.78;74.73;101864.91;6092218;29;20343;-66
2023/08/22 04:23:48;;;;;;;2.22;2.03;;;;;;;19.76;73.91;101869.69;6106763;29;20244;-66
2023/08/22 04:27:12;;;;;;;3.10;1.52;;;;;;;19.63;74.14;101881.16;6100255;28;20255;-67
2023/08/22 04:30:33;;;;;;;3.17;1.98;;;;;;;19.28;74.86;101872.38;6079112;29;20240;-66
2023/08/22 04:33:55;;;;;;;2.67;2.28;;;;;;;19.20;75.84;101875.94;6090570;29;20229;-67
2023/08/22 04:37:16;;;;;;;5.75;1.95;;;;;;;19.42;75.83;101866.28;6107376;28;20610;-66
2023/08/22 04:40:37;;;;;;;2.10;1.90;;;;;;;19.65;75.17;101868.16;6106617;29;20228;-66
2023/08/22 04:44:19;;;;;;;5.68;2.58;;;;;;;19.99;74.19;101857.03;6083357;29;20318;-66
2023/08/22 04:47:40;;;;;;;2.08;1.80;;;;;;;19.91;73.41;101860.63;6092012;29;20239;-67
2023/08/22 04:51:01;;;;;;;4.70;2.05;;;;;;;19.60;74.69;101862.38;6076563;28;20225;-68
2023/08/22 04:54:22;;;;;;;3.75;2.17;;;;;;;19.61;74.46;101861.31;6081510;29;20972;-70
2023/08/22 04:57:43;;;;;;;4.15;1.90;;;;;;;19.56;74.76;101858.25;6088054;29;20228;-69
2023/08/22 05:01:06;;;;;;;3.08;2.08;;;;;;;19.53;74.67;101857.72;6074194;29;20919;-70
2023/08/22 05:04:27;;;;;;;4.53;1.92;;;;;;;19.16;75.77;101860.91;6063621;29;20247;-70
2023/08/22 05:07:48;;;;;;;5.25;2.10;;;;;;;19.56;75.39;101865.59;6093939;29;20252;-69
2023/08/22 05:11:09;;;;;;;3.25;1.95;;;;;;;19.59;74.91;101857.91;6087946;29;20240;-69
2023/08/22 05:14:32;;;;;;;7.72;2.22;;;;;;;19.59;75.16;101855.16;6094554;29;20722;-70
2023/08/22 05:17:54;;;;;;;3.03;2.72;;;;;;;19.90;74.51;101850.69;6100996;29;20239;-70
2023/08/22 05:21:15;;;;;;;4.57;2.17;;;;;;;20.12;74.07;101853.75;6103234;29;20595;-70
2023/08/22 05:24:37;;;;;;;2.70;2.42;;;;;;;20.07;73.49;101859.75;6104160;29;20231;-70
2023/08/22 05:27:58;;;;;;;3.20;2.42;;;;;;;19.87;74.07;101853.81;6088739;29;20236;-70
2023/08/22 05:31:20;;;;;;;4.20;2.30;;;;;;;19.65;74.67;101862.69;6064246;29;20244;-68
2023/08/22 05:34:42;;;;;;;4.88;3.40;;;;;;;19.98;74.70;101860.81;6090907;29;20233;-70
2023/08/22 05:38:03;;;;;;;15.35;3.55;;;;;;;20.15;74.19;101862.47;6088277;28;20231;-69
2023/08/22 05:41:24;;;;;;;5.03;2.45;;;;;;;20.18;73.75;101864.88;6089262;29;20244;-70
2023/08/22 05:44:46;;;;;;;6.13;2.63;;;;;;;20.19;73.68;101871.22;6087824;29;20322;-71
2023/08/22 05:48:07;;;;;;;7.95;3.20;;;;;;;20.24;73.86;101861.47;6102223;29;20243;-70
2023/08/22 05:51:29;;;;;;;6.72;2.50;;;;;;;20.23;73.80;101864.38;6084765;29;20240;-70
2023/08/22 05:54:50;;;;;;;4.43;2.50;;;;;;;19.94;74.17;101853.97;6083336;29;20262;-69
2023/08/22 05:58:11;;;;;;;5.75;2.88;;;;;;;20.03;74.19;101855.66;6097181;29;20247;-69
2023/08/22 06:01:32;;;;;;;3.10;2.40;;;;;;;19.87;74.84;101858.41;6070587;29;20248;-70
2023/08/22 06:04:53;;;;;;;5.18;2.88;;;;;;;19.80;74.91;101850.03;6095541;29;20239;-69
2023/08/22 06:08:15;;;;;;;2.67;2.35;;;;;;;19.42;75.22;101852.63;6105008;29;20223;-70
2023/08/22 06:11:36;;;;;;;4.10;2.80;;;;;;;19.50;76.22;101856.22;6081017;29;20232;-70
2023/08/22 06:14:56;;;;;;;4.28;3.15;;;;;;;19.63;75.73;101852.97;6079976;29;20324;-70
2023/08/22 06:18:18;;;;;;;5.95;2.40;;;;;;;19.61;76.46;101850.38;6079887;29;20611;-70
2023/08/22 06:21:39;;;;;;;3.55;2.55;;;;;;;19.80;75.63;101843.69;6082164;29;20237;-70
2023/08/22 06:25:04;;;;;;;4.68;2.75;;;;;;;19.44;76.71;101854.13;6078459;29;20435;-70
2023/08/22 06:28:25;;;;;;;6.88;2.67;;;;;;;19.46;76.64;101852.06;6080949;28;20236;-70
2023/08/22 06:31:46;;;;;;;4.60;2.38;;;;;;;19.33;76.94;101853.59;6096713;29;20228;-70
2023/08/22 06:35:08;;;;;;;6.63;2.58;;;;;;;19.68;76.69;101856.03;6086418;29;20236;-71
2023/08/22 06:38:31;;;;;;;5.40;2.40;;;;;;;19.61;76.59;101861.31;6087707;29;20240;-71
2023/08/22 06:41:53;;;;;;;3.65;2.35;;;;;;;19.51;76.38;101866.09;6090279;29;20758;-70
2023/08/22 06:45:18;;;;;;;5.35;2.42;;;;;;;20.00;75.24;101864.22;6073031;29;20237;-70
2023/08/22 06:48:40;;;;;;;3.50;1.95;;;;;;;20.27;74.05;101854.78;6088570;29;20227;-70
2023/08/22 06:52:01;;;;;;;3.72;2.60;;;;;;;20.62;72.65;101865.28;6084232;29;20284;-70
2023/08/22 06:55:22;;;;;;;3.45;2.47;;;;;;;21.00;71.19;101863.56;6084553;29;20244;-70
2023/08/22 06:58:44;;;;;;;4.28;2.47;;;;;;;21.28;70.03;101860.16;6104732;29;20225;-70
2023/08/22 07:02:05;;;;;;;6.07;2.97;;;;;;;21.15;69.49;101861.81;6098303;29;20244;-70
2023/08/22 07:05:26;;;;;;;5.53;2.22;;;;;;;21.25;69.24;101854.19;6081995;29;20634;-70
2023/08/22 07:08:46;;;;;;;4.20;2.65;;;;;;;21.28;69.14;101859.28;6098517;29;20228;-71
2023/08/22 07:12:07;;;;;;;5.40;3.17;;;;;;;21.51;68.23;101856.59;6073920;29;20260;-70
2023/08/22 07:15:30;;;;;;;3.38;2.30;;;;;;;21.51;68.38;101856.59;6094398;28;20236;-70
2023/08/22 07:18:50;;;;;;;4.93;2.42;;;;;;;21.42;67.71;101842.91;6106007;29;20244;-70
2023/08/22 07:22:11;;;;;;;5.47;2.17;;;;;;;21.55;67.53;101846.94;6105302;29;20719;-70
2023/08/22 07:25:33;;;;;;;2.85;2.42;;;;;;;21.43;67.38;101849.25;6098004;29;20260;-71
2023/08/22 07:28:53;;;;;;;7.97;1.83;;;;;;;21.85;66.86;101840.53;6107518;29;20235;-70
2023/08/22 07:32:18;;;;;;;2.67;2.13;;;;;;;21.70;66.90;101836.84;6103139;29;20323;-70
2023/08/22 07:35:39;;;;;;;2.30;1.70;;;;;;;21.77;66.60;101835.06;6090320;29;20232;-71
2023/08/22 07:39:00;;;;;;;2.83;2.08;;;;;;;22.40;65.49;101829.13;6104429;29;20228;-71
2023/08/22 07:42:21;;;;;;;2.88;2.13;;;;;;;22.43;64.50;101839.72;6105294;29;20239;-70
2023/08/22 07:45:42;;;;;;;5.63;2.10;;;;;;;22.69;64.42;101841.00;6103326;29;20239;-70
2023/08/22 07:49:04;;;;;;;3.03;2.17;;;;;;;22.44;63.69;101842.31;6098250;29;20611;-70
2023/08/22 07:52:25;;;;;;;3.88;1.92;;;;;;;22.42;62.53;101838.03;6102306;29;20244;-71
2023/08/22 07:55:47;;;;;;;3.05;1.75;;;;;;;22.87;62.55;101841.44;6099773;28;20227;-69
2023/08/22 07:59:08;;;;;;;3.95;2.17;;;;;;;22.39;62.95;101827.41;6096051;29;20314;-70
2023/08/22 08:02:29;;;;;;;3.45;1.92;;;;;;;22.46;62.86;101834.72;6102665;29;20248;-70
2023/08/22 08:05:51;;;;;;;4.10;1.83;;;;;;;22.10;63.42;101831.88;6095078;29;20232;-70
2023/08/22 08:09:12;;;;;;;11.68;2.13;;;;;;;22.18;64.14;101831.78;6098420;29;20831;-70
2023/08/22 08:12:33;;;;;;;3.28;1.92;;;;;;;22.08;64.06;101839.44;6087111;29;20272;-71
2023/08/22 08:15:53;;;;;;;5.82;1.75;;;;;;;22.53;63.76;101840.31;6094134;29;20899;-70
2023/08/22 08:19:16;;;;;;;9.73;2.47;;;;;;;23.01;62.89;101835.03;6105765;29;20227;-71
2023/08/22 08:22:38;;;;;;;2.80;1.85;;;;;;;23.03;63.37;101848.59;6089122;29;20244;-70
2023/08/22 08:25:59;;;;;;;1.90;1.50;;;;;;;23.21;62.86;101842.66;6083128;29;20244;-70
2023/08/22 08:29:21;;;;;;;4.07;2.03;;;;;;;23.50;62.29;101848.09;6108181;29;20232;-70
2023/08/22 08:32:42;;;;;;;2.88;1.45;;;;;;;24.05;60.98;101839.94;6103684;29;20260;-68
2023/08/22 08:36:04;;;;;;;5.50;1.85;;;;;;;24.08;60.26;101841.41;6071128;29;20508;-71
2023/08/22 08:39:26;;;;;;;2.83;1.17;;;;;;;24.76;59.50;101838.69;6086156;29;20323;-70
2023/08/22 08:42:48;;;;;;;4.90;1.77;;;;;;;24.83;59.11;101834.03;6095518;29;20227;-69
2023/08/22 08:46:10;;;;;;;5.40;1.80;;;;;;;24.76;58.92;101837.84;6085305;29;20338;-70
2023/08/22 08:49:32;;;;;;;3.05;1.40;;;;;;;24.14;59.93;101844.22;6088771;28;20236;-70
2023/08/22 08:52:52;;;;;;;4.68;1.92;;;;;;;25.05;58.83;101848.56;6101347;28;20240;-70
2023/08/22 08:56:16;;;;;;;5.07;1.77;;;;;;;25.13;58.30;101846.47;6079290;29;20631;-70
2023/08/22 08:59:37;;;;;;;3.33;1.67;;;;;;;25.65;57.06;101847.66;6094282;29;20512;-70
2023/08/22 09:02:58;;;;;;;3.03;1.35;;;;;;;25.53;56.88;101849.34;6108041;29;20243;-70
2023/08/22 09:06:20;;;;;;;2.72;1.60;;;;;;;25.55;56.67;101850.00;6096050;29;20252;-70
2023/08/22 09:09:41;;;;;;;4.95;1.58;;;;;;;25.25;56.85;101844.81;6092651;29;20240;-70
2023/08/22 09:13:04;;;;;;;2.10;1.40;;;;;;;24.65;56.89;101847.50;6101475;29;20226;-69
2023/08/22 09:16:26;;;;;;;7.18;1.52;;;;;;;25.22;56.44;101839.69;6082896;29;20241;-70
2023/08/22 09:19:47;;;;;;;7.35;1.60;;;;;;;26.13;54.66;101847.28;6097457;29;20224;-70
2023/08/22 09:23:19;;;;;;;2.08;1.50;;;;;;;26.15;53.65;101838.75;6106304;29;20963;-70
2023/08/22 09:26:47;;;;;;;2.72;1.52;;;;;;;25.57;54.24;101842.34;6081256;29;20236;-72
2023/08/22 09:30:14;;;;;;;2.67;2.08;;;;;;;25.32;54.88;101840.13;6091324;29;20606;-69
2023/08/22 09:33:45;;;;;;;2.60;1.20;;;;;;;25.62;54.53;101839.78;6111101;29;20247;-70
2023/08/22 09:37:06;;;;;;;2.95;1.40;;;;;;;25.37;54.40;101840.38;6081381;29;20331;-69
2023/08/22 09:40:27;;;;;;;3.92;2.15;;;;;;;26.14;53.79;101839.81;6090734;29;20574;-68
2023/08/22 09:43:51;;;;;;;6.15;1.38;;;;;;;26.51;53.13;101839.13;6098203;29;20643;-69
2023/08/22 09:47:14;;;;;;;3.00;1.67;;;;;;;26.72;52.80;101835.25;6098225;29;20974;-68
2023/08/22 09:50:41;;;;;;;3.95;1.58;;;;;;;26.44;53.27;101834.66;6086914;29;20716;-69
2023/08/22 09:54:04;;;;;;;3.38;2.20;;;;;;;25.52;54.51;101839.34;6090874;29;20233;-70
2023/08/22 09:57:26;;;;;;;1.25;1.15;;;;;;;26.00;54.90;101849.16;6099060;29;20236;-70
2023/08/22 10:00:47;;;;;;;1.67;1.40;;;;;;;26.03;55.18;101840.44;6072166;29;20240;-70
2023/08/22 10:04:12;;;;;;;3.95;1.25;;;;;;;26.17;55.67;101833.88;6091815;28;20241;-70
2023/08/22 10:07:33;;;;;;;2.85;1.42;;;;;;;26.20;56.00;101829.81;6101862;28;20350;-69
2023/08/22 10:10:54;;;;;;;2.60;1.88;;;;;;;26.70;55.57;101835.41;6099886;29;20228;-70
2023/08/22 10:14:21;;;;;;;6.07;2.65;;;;;;;26.39;53.70;101838.06;6095012;29;20232;-69
2023/08/22 10:17:44;;;;;;;6.35;1.45;;;;;;;26.65;53.94;101838.00;6088969;29;20240;-70
2023/08/22 10:21:06;;;;;;;4.90;1.67;;;;;;;27.00;53.42;101830.22;6091966;29;20553;-70
2023/08/22 10:24:29;;;;;;;3.92;1.48;;;;;;;27.17;52.32;101838.84;6092743;28;20972;-68
2023/08/22 10:27:50;;;;;;;2.55;1.60;;;;;;;27.11;52.27;101837.84;6099689;29;20342;-70
2023/08/22 10:31:11;;;;;;;2.97;1.85;;;;;;;27.14;53.57;101828.25;6080948;29;20233;-70
2023/08/22 10:35:03;;;;;;;2.40;1.05;;;;;;;27.00;52.23;101819.13;6096496;29;20334;-70
2023/08/22 10:38:25;;;;;;;3.58;1.45;;;;;;;27.11;51.28;101820.38;6103393;29;20279;-70
2023/08/22 10:41:54;;;;;;;1.05;1.05;;;;;;;26.72;52.65;101832.47;6097870;28;20280;-70
2023/08/22 10:45:19;;;;;;;2.58;1.45;;;;;;;27.79;51.81;101821.44;6091400;29;20228;-70
2023/08/22 10:48:40;;;;;;;12.45;1.98;;;;;;;27.53;51.25;101823.31;6101594;29;20505;-69
2023/08/22 10:52:06;;;;;;;1.77;1.35;;;;;;;27.12;53.13;101819.31;6085156;29;20517;-70
2023/08/22 10:55:32;;;;;;;2.08;1.40;;;;;;;28.19;52.00;101809.75;6090589;28;20311;-69
2023/08/22 10:59:00;;;;;;;1.98;1.75;;;;;;;28.36;50.62;101815.53;6104347;29;20239;-70
2023/08/22 11:02:23;;;;;;;1.73;1.40;;;;;;;27.18;51.26;101812.88;6104181;29;20244;-70
2023/08/22 11:05:44;;;;;;;1.40;1.30;;;;;;;27.90;50.47;101812.34;6092860;29;20266;-70
2023/08/22 11:09:05;;;;;;;2.58;1.40;;;;;;;27.96;49.66;101814.22;6103949;29;20240;-69
2023/08/22 11:12:29;;;;;;;4.10;1.80;;;;;;;28.10;48.79;101813.06;6106332;29;20659;-70
2023/08/22 11:15:51;;;;;;;3.83;1.55;;;;;;;28.14;48.87;101817.06;6081209;29;20237;-70
2023/08/22 11:19:12;;;;;;;1.60;1.20;;;;;;;28.86;48.72;101810.69;6086876;29;20239;-70
2023/08/22 11:22:33;;;;;;;2.03;1.52;;;;;;;28.68;48.12;101819.91;6098687;29;20236;-71
2023/08/22 11:25:54;;;;;;;3.70;1.50;;;;;;;28.21;48.50;101813.13;6088334;29;20628;-69
2023/08/22 11:29:17;;;;;;;2.55;1.65;;;;;;;27.53;50.36;101812.25;6094454;29;20336;-69
2023/08/22 11:32:41;;;;;;;1.85;1.35;;;;;;;28.08;49.68;101810.50;6099034;29;20661;-69
2023/08/22 11:36:02;;;;;;;11.82;2.00;;;;;;;27.27;49.25;101809.59;6080738;29;20228;-69
2023/08/22 11:39:23;;;;;;;2.50;1.92;;;;;;;28.39;49.55;101810.38;6092539;28;20472;-69
2023/08/22 11:42:46;;;;;;;2.67;1.73;;;;;;;28.04;48.68;101813.94;6098998;29;20232;-70
2023/08/22 11:46:11;;;;;;;3.67;1.90;;;;;;;28.08;48.28;101804.13;6056051;29;20614;-71
2023/08/22 11:49:40;;;;;;;2.78;1.52;;;;;;;27.73;49.42;101806.53;6092133;29;20260;-70
2023/08/22 11:53:11;;;;;;;2.63;1.42;;;;;;;29.49;47.37;101806.41;6097321;29;20254;-69
2023/08/22 11:56:32;;;;;;;2.45;1.80;;;;;;;32.33;42.59;101814.88;6079985;29;22110;-70
2023/08/22 11:59:53;;;;;;;2.55;1.60;;;;;;;31.02;43.96;101804.19;6090553;29;20233;-68
2023/08/22 12:03:15;;;;;;;3.70;1.20;;;;;;;29.99;45.39;101817.97;6095969;29;20273;-70
2023/08/22 12:06:36;;;;;;;3.33;1.60;;;;;;;31.67;42.37;101812.97;6064456;29;20575;-70
2023/08/22 12:09:58;;;;;;;2.65;1.35;;;;;;;32.27;41.15;101819.56;6087968;29;20256;-70
2023/08/22 12:13:20;;;;;;;4.68;1.90;;;;;;;32.99;39.85;101807.16;6092359;29;20535;-70
2023/08/22 12:16:42;;;;;;;2.53;1.52;;;;;;;35.23;36.68;101815.03;6091310;28;20236;-70
2023/08/22 12:20:05;;;;;;;1.90;1.08;;;;;;;35.55;35.96;101806.41;6094325;28;20310;-71
2023/08/22 12:23:27;;;;;;;4.35;1.83;;;;;;;34.79;37.73;101820.19;6103056;29;20228;-70
2023/08/22 12:26:48;;;;;;;1.40;1.30;;;;;;;35.33;37.25;101804.66;6085077;29;20240;-69
2023/08/22 12:30:10;;;;;;;2.08;1.75;;;;;;;32.13;40.77;101796.72;6082612;29;20634;-70
2023/08/22 12:33:31;;;;;;;1.50;1.40;;;;;;;33.66;39.78;101815.16;6105751;29;20273;-69
2023/08/22 12:36:53;;;;;;;2.28;1.20;;;;;;;35.96;36.11;101808.97;6106186;29;20228;-69
2023/08/22 12:40:15;;;;;;;2.22;1.15;;;;;;;36.94;33.54;101822.50;6092950;29;20248;-70
2023/08/22 12:43:35;;;;;;;3.33;1.60;;;;;;;37.55;32.56;101824.66;6107616;29;20497;-70
2023/08/22 12:46:58;;;;;;;5.60;2.00;;;;;;;36.79;33.11;101815.78;6086403;29;20236;-70
2023/08/22 12:50:19;;;;;;;2.22;1.20;;;;;;;36.45;32.86;101820.41;6092812;29;20233;-69
2023/08/22 12:53:41;;;;;;;1.75;1.35;;;;;;;38.42;31.48;101830.41;6105371;29;20593;-69
2023/08/22 12:57:02;;;;;;;1.17;1.10;;;;;;;36.95;31.38;101810.94;6095003;29;20488;-69
2023/08/22 13:00:23;;;;;;;1.88;0.90;;;;;;;37.07;31.90;101819.88;6098897;29;20349;-70
2023/08/22 13:03:44;;;;;;;1.88;1.00;;;;;;;37.70;30.89;101818.06;6102395;29;20323;-70
2023/08/22 13:07:06;;;;;;;2.42;1.08;;;;;;;37.99;29.97;101818.16;6095362;29;20229;-69
2023/08/22 13:10:28;;;;;;;1.83;1.10;;;;;;;36.90;31.84;101805.38;6101339;29;20236;-69
2023/08/22 13:13:49;;;;;;;1.70;1.30;;;;;;;38.24;31.33;101798.22;6113109;29;20522;-69
2023/08/22 13:17:10;;;;;;;1.33;1.20;;;;;;;36.16;30.69;101801.59;6103033;29;20236;-69
2023/08/22 13:20:31;;;;;;;1.75;0.90;;;;;;;37.66;29.75;101794.47;6091673;28;20245;-69
2023/08/22 13:23:51;;;;;;;1.58;1.17;;;;;;;36.38;30.82;101802.13;6103213;29;20772;-69
2023/08/22 13:27:14;;;;;;;1.30;1.20;;;;;;;35.17;32.50;101793.69;6110820;29;20228;-69
2023/08/22 13:30:35;;;;;;;2.50;0.98;;;;;;;37.37;31.42;101800.03;6090553;29;20610;-69
2023/08/22 13:33:56;;;;;;;3.45;1.10;;;;;;;37.67;31.25;101804.59;6109370;29;20780;-70
2023/08/22 13:37:17;;;;;;;1.27;1.00;;;;;;;37.32;30.90;101804.84;6106783;29;20236;-70
2023/08/22 13:40:38;;;;;;;1.65;1.00;;;;;;;38.02;30.30;101801.50;6096635;29;20622;-69
2023/08/22 13:44:00;;;;;;;1.30;0.80;;;;;;;37.65;29.99;101798.41;6104575;29;20789;-69
2023/08/22 13:47:21;;;;;;;1.30;0.85;;;;;;;36.41;31.00;101802.44;6091294;29;20241;-70
2023/08/22 13:50:42;;;;;;;2.58;0.98;;;;;;;37.35;30.95;101795.81;6089319;29;20270;-69
2023/08/22 13:54:03;;;;;;;3.97;0.80;;;;;;;36.77;30.68;101800.31;6101515;29;20235;-69
2023/08/22 13:57:27;;;;;;;0.70;0.70;;;;;;;38.17;30.32;101803.31;6101349;29;20241;-69
2023/08/22 14:00:49;;;;;;;1.73;0.80;;;;;;;36.38;30.15;101802.97;6098732;29;20492;-68
2023/08/22 14:04:10;;;;;;;2.08;1.08;;;;;;;36.38;30.20;101791.75;6098645;29;20232;-69
2023/08/22 14:07:31;;;;;;;0.80;0.80;;;;;;;35.22;31.53;101790.88;6100066;29;20508;-68
2023/08/22 14:10:55;;;;;;;0.88;0.85;;;;;;;35.78;31.51;101789.84;6082771;29;20267;-69
2023/08/22 14:14:16;;;;;;;0.50;0.50;;;;;;;35.71;30.09;101789.28;6096886;29;20244;-69
2023/08/22 14:17:38;;;;;;;1.55;0.50;;;;;;;34.39;31.66;101801.16;6106612;29;20232;-69
2023/08/22 14:20:59;;;;;;;2.40;0.88;;;;;;;34.49;32.35;101792.84;6071071;29;20270;-69
2023/08/22 14:24:20;;;;;;;2.83;0.60;;;;;;;34.08;32.70;101787.25;6093378;29;20232;-71
2023/08/22 14:27:41;;;;;;;1.45;1.05;;;;;;;34.07;32.97;101793.97;6102793;28;20232;-71
2023/08/22 14:31:02;;;;;;;0.70;0.70;;;;;;;33.80;32.68;101786.44;6079950;29;20233;-72
2023/08/22 14:34:27;;;;;;;1.52;0.80;;;;;;;31.90;34.57;101773.72;6085310;28;20231;-69
2023/08/22 14:37:50;;;;;;;0.60;0.60;;;;;;;32.26;35.18;101773.19;6092763;29;20232;-69
2023/08/22 14:41:11;;;;;;;2.30;0.93;;;;;;;32.45;35.50;101774.56;6092077;28;20227;-69
2023/08/22 14:44:32;;;;;;;1.00;0.90;;;;;;;32.39;35.60;101775.59;6090940;29;20552;-72
2023/08/22 14:47:52;;;;;;;0.70;0.55;;;;;;;32.00;36.38;101774.75;6098328;29;20326;-69
2023/08/22 14:51:15;;;;;;;0.73;0.50;;;;;;;31.81;36.04;101766.88;6055840;29;20229;-69
2023/08/22 14:54:35;;;;;;;1.23;0.77;;;;;;;32.08;35.97;101751.16;6084145;29;20248;-69
2023/08/22 14:57:56;;;;;;;1.27;0.70;;;;;;;29.16;37.24;101762.44;6089750;28;20236;-69
2023/08/22 15:01:18;;;;;;;2.05;1.38;;;;;;;30.12;37.11;101758.47;6074470;29;20235;-69
2023/08/22 15:04:39;;;;;;;1.73;0.73;;;;;;;29.18;39.15;101763.03;6086164;29;20256;-68
2023/08/22 15:08:01;;;;;;;1.45;0.93;;;;;;;29.46;39.80;101767.94;6086418;29;20232;-70
2023/08/22 15:11:22;;;;;;;1.33;0.82;;;;;;;29.21;40.55;101764.50;6078371;29;20239;-70
2023/08/22 15:14:43;;;;;;;1.20;0.88;;;;;;;28.73;41.64;101763.66;6080182;29;20297;-69
2023/08/22 15:18:04;;;;;;;1.60;0.63;;;;;;;29.31;41.05;101763.94;6084200;29;20227;-69
2023/08/22 15:21:25;;;;;;;1.95;1.38;;;;;;;29.71;40.04;101760.25;6072027;28;20261;-69
2023/08/22 15:24:48;;;;;;;3.50;0.90;;;;;;;30.52;39.65;101748.28;6077945;29;20264;-69
2023/08/22 15:28:09;;;;;;;3.78;2.10;;;;;;;30.53;39.80;101761.06;6081723;29;20228;-69
2023/08/22 15:31:29;;;;;;;3.97;1.25;;;;;;;30.25;39.79;101772.13;6086966;28;20247;-71
2023/08/22 15:34:50;;;;;;;3.92;1.33;;;;;;;30.58;40.23;101769.56;6085839;28;20247;-72
2023/08/22 15:38:11;;;;;;;0.73;0.73;;;;;;;30.51;39.18;101769.69;6093942;29;20231;-70